KIZG

Eastern Slopes Regional Airport

Fryeburg, Maine, USA
METAR KIZG 162354Z AUTO 29008KT 10SM CLR M06/M12 A2999 RMK AO2 SLP167 60000 T10611122 11011 21067 51043
Observed Flight Rules
Dec-16 @ 23:54 UTC (21 minutes ago) Visual Flight Rules
Wind Visibility Clouds
290° at 8 knots 10 miles
  • Clear skies
Temperatures Readings
Current -6°C / 21°F
Dewpoint -12°C / 10°F
Humidity 63%
Altimeter 29.99" Hg
Pressure 1016.7 hPa
Elevation 135
METAR KIZG 162354Z AUTO 29008KT 10SM CLR M06/M12 A2999 RMK AO2 SLP167 60000 T10611122 11011 21067 51043
Observed Flight Rules
Dec-16 @ 23:54 UTC
(21 minutes ago)
VFR
Wind Visibility
290° at 8 knots 10 miles
Clouds
  • Clear skies
Temperature Dewpoint
-6°C / 21°F -12°C / 10°F
Humidity Altimeter Pressure
63% 29.99" Hg 1016.7 hPa